Tuesday, November 13, 2018, 7:47 PM EST
Back to Local

KCEF, Chicopee Falls / Westover Air Force Base

Location: Chicopee, MA, United States Lat: 42.2
Local Time: 7:47 PM EST ( 0:47 GMT) Lon: -72.533
Time Zone: US/Eastern Elev: 246 ft

Show me the last for .
Show Decoded

2018-11-13 18:56 METAR KCEF 132356Z 31013G17KT 10SM FEW029 OVC100 05/01 A2990 RMK AO2A SLP133
                 60001 T00490007 10052 20045 52028 =
2018-11-13 18:26 METAR KCEF 132326Z 29005KT 10SM FEW027 OVC110 05/01 A2989 RMK AO2A SLP130 =
2018-11-13 17:56 METAR KCEF 132256Z 34012KT 10SM BKN027 OVC100 05/01 A2987 RMK AO2A SLP123
                 T00480011 =
2018-11-13 16:56 METAR KCEF 132156Z 34009KT 10SM SCT018 OVC095 05/02 A2985 RMK AO2A SLP116
                 T00520017 =
2018-11-13 16:26 METAR KCEF 132126Z 30004KT 10SM BKN023 OVC100 05/03 A2985 RMK AO2A CIG 023V100
                 PRESRR SLP116 =
2018-11-13 15:56 METAR KCEF 132056Z 33003KT 10SM SCT027 BKN060 OVC110 05/04 A2981 RMK AO2A SLP102
                 60001 T00500035 =
2018-11-13 14:56 METAR KCEF 131956Z 36005KT 10SM FEW009 SCT042 BKN060 OVC120 05/04 A2979 RMK AO2A
                 SLP096 T00520035 =
2018-11-13 14:47 METAR KCEF 131947Z 04005KT 10SM FEW008 BKN044 OVC060 05/03 A2978 RMK AO2A SLP092
                 =
2018-11-13 14:05 METAR KCEF 131905Z COR 02009KT 7SM BKN006 OVC026 05/04 A2980 RMK AO2A SLP099 COR
                 1919 =
2018-11-13 13:56 METAR KCEF 131856Z 02010KT 4SM BR BKN006 BKN011 OVC025 05/04 A2979 RMK AO2A
                 SLP096 P0001 T00480036 =
2018-11-13 12:56 METAR KCEF 131756Z COR 01009KT 3SM -DZ BR BKN006 OVC016 05/04 A2979 RMK AO2A
                 SLP096 P0001 60078 T00490039 10049 20037 57035 COR 1803 =
2018-11-13 12:43 METAR KCEF 131743Z 02013KT 4SM -RA BR BKN006 OVC016 05/04 A2978 RMK AO2A SLP092
                 =
2018-11-13 11:56 METAR KCEF 131656Z 01016G22KT 2SM -RA BR BKN006 OVC016 04/03 A2981 RMK AO2A
                 SLP102 P0007 T00430034 =
2018-11-13 11:52 METAR KCEF 131652Z 01018G23KT 2SM -RA BR BKN006 OVC016 04/03 A2981 RMK AO2A
                 SLP102 =
2018-11-13 10:56 METAR KCEF 131556Z 01013KT 1 1/2SM RA BR BKN004 OVC008 04/03 A2985 RMK AO2A
                 SLP116 P0023 T00400033 =
2018-11-13 10:11 METAR KCEF 131511Z 35008KT 1 1/2SM +RA BR OVC003 04/03 A2988 RMK AO2A SLP126 =
2018-11-13 09:56 METAR KCEF 131456Z 36006KT 2SM RA BR BKN004 OVC010 04/03 A2989 RMK AO2A SLP130
                 P0016 60047 T00390032 57046 =
2018-11-13 08:56 METAR KCEF 131356Z 35008KT 2SM RA BR BKN003 OVC008 04/03 A2995 RMK AO2A SLP150
                 P0013 T00370030 =
2018-11-13 07:56 METAR KCEF 131256Z 36005KT 2SM RA BR BKN003 OVC008 04/03 A3000 RMK AO2A SLP167
                 P0018 T00390032 =
2018-11-13 06:56 METAR KCEF 131156Z 35005KT 2SM RA BR BKN003 OVC008 04/03 A3003 RMK AO2A SLP177
                 P0016 60063 70064 T00360029 10043 20033 57044 =
2018-11-13 05:56 METAR KCEF 131056Z AUTO 34005KT 6SM RA BR OVC003 04/03 A3007 RMK AO2 SLP191
                 P0017 T00390032 =
2018-11-13 04:56 METAR KCEF 130956Z AUTO 36005KT 7SM -RA OVC004 04/04 A3011 RMK AO2 CIG 003 RWY05
                 PRESFR SLP204 P0011 T00430036 =
2018-11-13 04:41 METAR KCEF 130941Z AUTO 01004KT 5SM -RA BR BKN005 OVC010 04/04 A3013 RMK AO2
                 SLP211 =
2018-11-13 04:11 METAR KCEF 130911Z AUTO 01003KT 6SM -RA BR OVC006 04/03 A3015 RMK AO2 PRESFR
                 SLP218 =
2018-11-13 03:56 METAR KCEF 130856Z AUTO 00000KT 6SM -RA BR BKN005 BKN009 OVC020 04/03 A3017 RMK
                 AO2 CIG 005V022 SLP224 P0005 60019 T00380031 57038 =
2018-11-13 03:26 METAR KCEF 130826Z AUTO 03003KT 6SM -RA BR FEW005 SCT010 OVC024 04/03 A3018 RMK
                 AO2 CIG 010V024 PRESFR SLP228 =
2018-11-13 03:11 METAR KCEF 130811Z AUTO 00000KT 7SM -RA SCT004 OVC009 04/03 A3020 RMK AO2 CIG
                 004V009 SLP234 =
2018-11-13 02:56 METAR KCEF 130756Z AUTO 02003KT 6SM -RA BR BKN004 OVC010 04/03 A3021 RMK AO2 BKN
                 V OVC SLP238 P0006 T00350026 =
2018-11-13 02:26 METAR KCEF 130726Z AUTO 00000KT 8SM -RA BKN005 OVC011 04/03 A3023 RMK AO2 CIG
                 005V012 BKN V SCT SLP244 =
2018-11-13 02:11 METAR KCEF 130711Z AUTO 00000KT 10SM -RA SCT005 OVC012 04/03 A3023 RMK AO2 CIG
                 005V012 SLP244 =
2018-11-13 01:56 METAR KCEF 130656Z AUTO 00000KT 8SM -RA BKN005 OVC012 03/02 A3023 RMK AO2 SLP245
                 P0008 T00340022 =
2018-11-13 01:11 METAR KCEF 130611Z AUTO 00000KT 10SM -RA BKN005 OVC016 04/02 A3027 RMK AO2 BKN V
                 OVC SLP258 =
2018-11-13 00:56 METAR KCEF 130556Z AUTO 00000KT 10SM -RA BKN004 OVC020 03/01 A3028 RMK AO2
                 DZB16E20RAB20 SLP262 P0001 60001 T00340014 10053 20031 57016 =
2018-11-13 00:54 METAR KCEF 130554Z AUTO 00000KT 10SM -RA BKN004 OVC020 03/01 A3028 RMK AO2
                 DZB16E20RAB20 SLP262 =
2018-11-13 00:35 METAR KCEF 130535Z 00000KT 10SM -RA SCT006 SCT011 OVC022 04/01 A3029 RMK AO2A
                 SLP265 =
2018-11-13 00:16 METAR KCEF 130516Z 00000KT 10SM -RA OVC023 04/01 A3029 RMK AO2A SLP265 =
2018-11-12 23:56 METAR KCEF 130456Z 00000KT 10SM OVC025 04/01 A3030 RMK AO2A SLP268 T00370006
                 400951056 =
2018-11-12 23:26 METAR KCEF 130426Z 00000KT 10SM BKN028 BKN048 OVC100 03/00 A3031 RMK AO2A SLP272
                 =
2018-11-12 22:56 METAR KCEF 130356Z 00000KT 10SM OVC100 03/00 A3032 RMK AO2A SLP275 T00321003 =
2018-11-12 21:56 METAR KCEF 130256Z 00000KT 10SM OVC100 04/00 A3033 RMK AO2A SLP279 T00371003
                 55005 =
2018-11-12 20:56 METAR KCEF 130156Z 00000KT 10SM OVC120 05/M02 A3036 RMK AO2A SLP289 T00461021 =

Support USWX by starting your Amazon purchase here.